createdAt,value
2018-07-06T00:01:59.635Z,18.00
2018-07-06T00:04:41.590Z,18.00
2018-07-06T00:07:23.607Z,18.00
2018-07-06T00:10:05.882Z,18.00
2018-07-06T00:12:47.898Z,17.90
2018-07-06T00:15:30.005Z,17.90
2018-07-06T00:18:12.083Z,17.90
2018-07-06T00:20:54.034Z,17.90
2018-07-06T00:23:35.963Z,17.90
2018-07-06T00:26:17.718Z,17.90
2018-07-06T00:28:59.794Z,17.80
2018-07-06T00:31:41.865Z,17.80
2018-07-06T00:34:24.039Z,17.70
2018-07-06T00:37:05.834Z,17.70
2018-07-06T00:39:47.955Z,17.60
2018-07-06T00:42:29.786Z,17.50
2018-07-06T00:45:11.730Z,17.50
2018-07-06T00:47:53.698Z,17.40
2018-07-06T00:50:35.690Z,17.30
2018-07-06T00:53:17.663Z,17.30
2018-07-06T00:55:59.690Z,17.30
2018-07-06T00:58:41.711Z,17.30
2018-07-06T01:01:23.585Z,17.30
2018-07-06T01:04:05.811Z,17.30
2018-07-06T01:06:47.626Z,17.30
2018-07-06T01:09:29.750Z,17.30
2018-07-06T01:12:17.230Z,17.20
2018-07-06T01:15:01.871Z,17.20
2018-07-06T01:17:43.891Z,17.20
2018-07-06T01:20:25.934Z,17.20
2018-07-06T01:23:07.874Z,17.10
2018-07-06T01:25:49.994Z,17.10
2018-07-06T01:28:32.166Z,17.10
2018-07-06T01:31:14.355Z,17.00
2018-07-06T01:33:56.382Z,17.00
2018-07-06T01:36:38.711Z,17.00
2018-07-06T01:39:20.790Z,17.00
2018-07-06T01:42:02.910Z,16.90
2018-07-06T01:44:44.754Z,16.80
2018-07-06T01:47:27.255Z,16.80
2018-07-06T01:50:09.163Z,16.80
2018-07-06T01:52:51.219Z,16.80
2018-07-06T01:55:33.163Z,16.80
2018-07-06T01:58:15.285Z,16.70
2018-07-06T02:00:57.350Z,16.70
2018-07-06T02:03:39.433Z,16.70
2018-07-06T02:06:21.326Z,16.70
2018-07-06T02:09:03.503Z,16.70
2018-07-06T02:11:45.555Z,16.70
2018-07-06T02:14:27.782Z,16.70
2018-07-06T02:17:09.926Z,16.60
2018-07-06T02:19:52.135Z,16.60
2018-07-06T02:22:34.498Z,16.60
2018-07-06T02:25:16.570Z,16.60
2018-07-06T02:27:58.730Z,16.60
2018-07-06T02:30:40.595Z,16.50
2018-07-06T02:33:22.626Z,16.50
2018-07-06T02:36:04.723Z,16.50
2018-07-06T02:38:46.811Z,16.50
2018-07-06T02:41:28.683Z,16.50
2018-07-06T02:44:10.886Z,16.40
2018-07-06T02:46:52.899Z,16.50
2018-07-06T02:49:35.051Z,16.40
2018-07-06T02:52:17.315Z,16.40
2018-07-06T02:54:59.813Z,16.40
2018-07-06T02:57:42.101Z,16.40
2018-07-06T03:00:24.362Z,16.40
2018-07-06T03:03:06.553Z,16.30
2018-07-06T03:05:48.670Z,16.30
2018-07-06T03:08:30.839Z,16.30
2018-07-06T03:11:12.849Z,16.30
2018-07-06T03:13:55.070Z,16.30
2018-07-06T03:16:37.087Z,16.20
2018-07-06T03:19:19.280Z,16.20
2018-07-06T03:22:01.311Z,16.20
2018-07-06T03:24:43.363Z,16.30
2018-07-06T03:27:25.525Z,16.20
2018-07-06T03:30:07.659Z,16.30
2018-07-06T03:32:49.726Z,16.20
2018-07-06T03:35:31.794Z,16.20
2018-07-06T03:38:14.035Z,16.20
2018-07-06T03:40:55.999Z,16.20
2018-07-06T03:43:38.185Z,16.20
2018-07-06T03:46:20.202Z,16.20
2018-07-06T03:49:02.326Z,16.20
2018-07-06T03:51:44.507Z,16.20
2018-07-06T03:54:26.642Z,16.20
2018-07-06T03:57:08.687Z,16.20
2018-07-06T03:59:50.915Z,16.20
2018-07-06T04:02:32.924Z,16.20
2018-07-06T04:05:15.183Z,16.20
2018-07-06T04:07:57.246Z,16.20
2018-07-06T04:10:39.400Z,16.20
2018-07-06T04:13:21.407Z,16.20
2018-07-06T04:16:03.533Z,16.20
2018-07-06T04:18:45.574Z,16.20
2018-07-06T04:21:27.758Z,16.20
2018-07-06T04:24:09.898Z,16.30
2018-07-06T04:26:52.040Z,16.30
2018-07-06T04:29:34.102Z,16.30
2018-07-06T04:32:16.128Z,16.40
2018-07-06T04:34:58.223Z,16.40
2018-07-06T04:37:40.644Z,16.50
2018-07-06T04:40:22.922Z,16.50
2018-07-06T04:43:05.555Z,16.60
2018-07-06T04:45:48.238Z,16.60
2018-07-06T04:48:30.191Z,16.70
2018-07-06T04:51:12.232Z,16.70
2018-07-06T04:53:54.423Z,16.70
2018-07-06T04:56:36.511Z,16.80
2018-07-06T04:59:18.566Z,16.90
2018-07-06T05:02:00.799Z,16.90
2018-07-06T05:04:43.003Z,16.90
2018-07-06T05:07:24.904Z,17.00
2018-07-06T05:10:07.027Z,17.00
2018-07-06T05:12:49.026Z,17.10
2018-07-06T05:15:31.198Z,17.10
2018-07-06T05:18:13.311Z,17.10
2018-07-06T05:20:55.509Z,17.20
2018-07-06T05:23:37.543Z,17.30
2018-07-06T05:26:19.710Z,17.40
2018-07-06T05:29:01.795Z,17.40
2018-07-06T05:31:43.914Z,17.50
2018-07-06T05:34:25.930Z,17.60
2018-07-06T05:37:08.271Z,17.60
2018-07-06T05:39:50.314Z,17.70
2018-07-06T05:42:32.459Z,17.80
2018-07-06T05:45:14.938Z,17.80
2018-07-06T05:47:57.051Z,17.90
2018-07-06T05:50:39.151Z,18.00
2018-07-06T05:53:21.296Z,18.00
2018-07-06T05:56:03.370Z,18.00
2018-07-06T05:58:45.642Z,18.00
2018-07-06T06:01:28.094Z,18.10
2018-07-06T06:04:10.031Z,18.10
2018-07-06T06:06:52.147Z,18.20
2018-07-06T06:09:22.814Z,18.30
2018-07-06T06:11:53.526Z,18.40
2018-07-06T06:14:24.211Z,18.40
2018-07-06T06:16:54.902Z,18.40
2018-07-06T06:19:25.728Z,18.40
2018-07-06T06:21:56.710Z,18.40
2018-07-06T06:24:27.391Z,18.40
2018-07-06T06:26:58.075Z,18.40
2018-07-06T06:29:28.813Z,18.40
2018-07-06T06:32:00.175Z,18.40
2018-07-06T06:34:30.914Z,18.30
2018-07-06T06:37:02.424Z,18.30
2018-07-06T06:39:33.507Z,18.40
2018-07-06T06:42:04.695Z,18.40
2018-07-06T06:44:35.442Z,18.40
2018-07-06T06:47:06.810Z,18.40
2018-07-06T06:49:37.740Z,18.40
2018-07-06T06:52:08.446Z,18.40
2018-07-06T06:54:39.182Z,18.50
2018-07-06T06:57:09.839Z,18.50
2018-07-06T06:59:40.594Z,18.50
2018-07-06T07:02:11.383Z,18.50
2018-07-06T07:04:42.154Z,18.50
2018-07-06T07:07:13.062Z,18.50
2018-07-06T07:09:43.814Z,18.50
2018-07-06T07:12:14.822Z,18.50
2018-07-06T07:14:45.599Z,18.50
2018-07-06T07:17:16.334Z,18.50
2018-07-06T07:19:47.026Z,18.50
2018-07-06T07:22:17.734Z,18.50
2018-07-06T07:24:48.487Z,18.50
2018-07-06T07:27:19.507Z,18.50
2018-07-06T07:29:50.382Z,18.50
2018-07-06T07:32:21.062Z,18.50
2018-07-06T07:34:51.804Z,18.50
2018-07-06T07:37:22.499Z,18.60
2018-07-06T07:39:53.539Z,18.60
2018-07-06T07:42:24.574Z,18.60
2018-07-06T07:44:55.315Z,18.60
2018-07-06T07:47:26.078Z,18.70
2018-07-06T07:49:56.759Z,18.80
2018-07-06T07:52:38.844Z,18.80
2018-07-06T07:55:09.624Z,18.90
2018-07-06T07:57:39.262Z,19.00
2018-07-06T08:00:10.013Z,19.00
2018-07-06T08:02:40.646Z,19.00
2018-07-06T08:05:11.327Z,19.10
2018-07-06T08:07:42.041Z,19.20
2018-07-06T08:10:12.739Z,19.20
2018-07-06T08:12:43.418Z,19.30
2018-07-06T08:15:14.128Z,19.30
2018-07-06T08:17:44.786Z,19.30
2018-07-06T08:20:15.495Z,19.30
2018-07-06T08:22:46.164Z,19.30
2018-07-06T08:25:16.860Z,19.30
2018-07-06T08:27:47.490Z,19.40
2018-07-06T08:30:18.193Z,19.40
2018-07-06T08:32:49.014Z,19.40
2018-07-06T08:35:31.216Z,19.50
2018-07-06T08:38:05.280Z,19.50
2018-07-06T08:40:36.148Z,19.60
2018-07-06T08:43:07.130Z,19.60
2018-07-06T08:45:37.803Z,19.70
2018-07-06T08:48:08.462Z,19.70
2018-07-06T08:50:39.147Z,19.80
2018-07-06T08:53:09.799Z,19.80
2018-07-06T08:55:40.471Z,19.90
2018-07-06T08:58:11.132Z,19.90
2018-07-06T09:00:42.018Z,19.90
2018-07-06T09:03:12.786Z,20.00
2018-07-06T09:05:43.498Z,20.00
2018-07-06T09:08:14.156Z,20.10
2018-07-06T09:10:44.846Z,20.20
2018-07-06T09:13:15.516Z,20.20
2018-07-06T09:15:46.231Z,20.20
2018-07-06T09:18:16.883Z,20.30
2018-07-06T09:20:47.651Z,20.40
2018-07-06T09:23:18.507Z,20.40
2018-07-06T09:25:49.249Z,20.50
2018-07-06T09:28:20.119Z,20.50
2018-07-06T09:30:50.730Z,20.50
2018-07-06T09:33:21.490Z,20.60
2018-07-06T09:35:52.174Z,20.60
2018-07-06T09:38:23.004Z,20.50
2018-07-06T09:40:53.707Z,20.60
2018-07-06T09:43:24.401Z,20.50
2018-07-06T09:45:55.230Z,20.60
2018-07-06T09:48:25.590Z,20.60
2018-07-06T09:50:56.326Z,20.60
2018-07-06T09:53:27.132Z,20.60
2018-07-06T09:55:57.914Z,20.60
2018-07-06T09:58:28.520Z,20.70
2018-07-06T10:00:59.722Z,20.80
2018-07-06T10:03:30.446Z,20.90
2018-07-06T10:06:01.131Z,20.90
2018-07-06T10:08:31.783Z,20.90
2018-07-06T10:11:02.541Z,21.00
2018-07-06T10:13:40.530Z,21.10
2018-07-06T10:16:11.508Z,21.20
2018-07-06T10:18:42.362Z,21.30
2018-07-06T10:21:13.046Z,21.50
2018-07-06T10:23:43.503Z,21.50
2018-07-06T10:26:14.530Z,21.60
2018-07-06T10:28:52.726Z,21.70
2018-07-06T10:32:31.158Z,21.80
2018-07-06T10:35:01.840Z,21.90
2018-07-06T10:37:32.578Z,21.90
2018-07-06T10:40:03.457Z,22.00
2018-07-06T10:42:34.254Z,21.90
2018-07-06T10:45:05.146Z,22.00
2018-07-06T10:47:35.865Z,22.00
2018-07-06T10:50:06.810Z,22.00
2018-07-06T10:52:37.502Z,22.00
2018-07-06T10:55:08.194Z,22.10
2018-07-06T10:57:39.203Z,22.10
2018-07-06T11:00:10.262Z,22.20
2018-07-06T11:02:41.094Z,22.30
2018-07-06T11:05:11.807Z,22.40
2018-07-06T11:07:42.478Z,22.50
2018-07-06T11:10:13.701Z,22.60
2018-07-06T11:12:44.395Z,22.70
2018-07-06T11:15:15.257Z,22.70
2018-07-06T11:17:45.641Z,22.90
2018-07-06T11:20:16.546Z,22.90
2018-07-06T11:22:46.950Z,23.00
2018-07-06T11:25:17.563Z,23.00
2018-07-06T11:27:48.110Z,23.10
2018-07-06T11:30:18.467Z,23.10
2018-07-06T11:32:48.875Z,23.20
2018-07-06T11:35:19.262Z,23.30
2018-07-06T11:37:50.068Z,23.40
2018-07-06T11:40:20.914Z,23.50
2018-07-06T11:42:51.655Z,23.60
2018-07-06T11:45:22.031Z,23.70
2018-07-06T11:47:52.422Z,23.70
2018-07-06T11:50:22.841Z,23.80
2018-07-06T11:52:53.387Z,23.90
2018-07-06T11:55:23.746Z,24.00
2018-07-06T11:57:54.157Z,24.10
2018-07-06T12:00:24.514Z,24.10
2018-07-06T12:02:54.922Z,24.20
2018-07-06T12:05:25.296Z,24.20
2018-07-06T12:07:55.673Z,24.30
2018-07-06T12:10:26.126Z,24.30
2018-07-06T12:12:56.866Z,24.40
2018-07-06T12:15:27.306Z,24.40
2018-07-06T12:17:57.856Z,24.50
2018-07-06T12:20:28.193Z,24.50
2018-07-06T12:22:58.766Z,24.50
2018-07-06T12:25:29.147Z,24.60
2018-07-06T12:27:59.568Z,24.60
2018-07-06T12:30:29.966Z,24.60
2018-07-06T12:33:00.342Z,24.70
2018-07-06T12:35:30.790Z,24.80
2018-07-06T12:38:01.154Z,24.90
2018-07-06T12:40:31.555Z,25.00
2018-07-06T12:43:01.988Z,25.10
2018-07-06T12:45:33.724Z,25.20
2018-07-06T12:48:04.949Z,25.20
2018-07-06T12:50:35.334Z,25.30
2018-07-06T12:53:05.735Z,25.20
2018-07-06T12:55:36.138Z,25.20
2018-07-06T12:58:06.559Z,25.20
2018-07-06T13:00:37.115Z,25.30
2018-07-06T13:03:07.529Z,25.40
2018-07-06T13:08:08.412Z,25.30
2018-07-06T13:10:38.813Z,25.20
2018-07-06T13:13:09.476Z,25.10
2018-07-06T13:15:39.862Z,25.00
2018-07-06T13:18:10.274Z,25.00
2018-07-06T13:20:40.632Z,25.20
2018-07-06T13:23:11.378Z,25.30
2018-07-06T13:25:41.751Z,25.40
2018-07-06T13:28:12.158Z,25.40
2018-07-06T13:30:42.882Z,25.30
2018-07-06T13:33:13.297Z,25.30
2018-07-06T13:35:43.650Z,25.40
2018-07-06T13:38:14.042Z,25.40
2018-07-06T13:40:44.755Z,25.40
2018-07-06T13:43:15.442Z,25.50
2018-07-06T13:45:45.825Z,25.60
2018-07-06T13:48:16.394Z,25.50
2018-07-06T13:50:47.158Z,25.50
2018-07-06T13:53:17.531Z,25.40
2018-07-06T13:55:47.883Z,25.30
2018-07-06T13:58:18.335Z,25.20
2018-07-06T14:00:48.695Z,25.10
2018-07-06T14:03:19.071Z,25.10
2018-07-06T14:05:49.469Z,25.10
2018-07-06T14:08:20.018Z,25.20
2018-07-06T14:10:50.455Z,25.20
2018-07-06T14:13:20.885Z,25.30
2018-07-06T14:15:51.313Z,25.30
2018-07-06T14:18:21.671Z,25.40
2018-07-06T14:20:52.030Z,25.40
2018-07-06T14:23:22.402Z,25.40
2018-07-06T14:25:52.791Z,25.40
2018-07-06T14:28:23.166Z,25.30
2018-07-06T14:30:53.750Z,25.20
2018-07-06T14:33:24.103Z,25.20
2018-07-06T14:35:54.854Z,25.10
2018-07-06T14:38:25.522Z,25.10
2018-07-06T14:40:55.947Z,25.00
2018-07-06T14:43:26.503Z,25.00
2018-07-06T14:45:56.878Z,25.00
2018-07-06T14:48:27.259Z,25.10
2018-07-06T14:50:57.646Z,25.20
2018-07-06T14:53:27.998Z,25.40
2018-07-06T14:55:58.798Z,25.50
2018-07-06T14:58:29.138Z,25.60
2018-07-06T15:00:59.518Z,25.70
2018-07-06T15:03:29.875Z,25.80
2018-07-06T15:06:00.607Z,25.80
2018-07-06T15:08:30.998Z,25.90
2018-07-06T15:11:01.435Z,25.90
2018-07-06T15:13:31.814Z,26.00
2018-07-06T15:16:02.291Z,26.10
2018-07-06T15:18:32.815Z,26.10
2018-07-06T15:21:03.234Z,26.20
2018-07-06T15:23:33.635Z,26.30
2018-07-06T15:26:04.014Z,26.30
2018-07-06T15:28:34.738Z,26.40
2018-07-06T15:31:05.100Z,26.30
2018-07-06T15:33:35.483Z,26.20
2018-07-06T15:36:06.180Z,26.00
2018-07-06T15:38:36.563Z,25.90
2018-07-06T15:41:06.951Z,25.70
2018-07-06T15:43:37.679Z,25.60
2018-07-06T15:46:08.038Z,25.50
2018-07-06T15:48:38.557Z,25.30
2018-07-06T15:51:09.141Z,25.20
2018-07-06T15:53:39.523Z,25.10
2018-07-06T15:56:09.890Z,25.00
2018-07-06T15:58:40.262Z,25.00
2018-07-06T16:01:10.965Z,24.90
2018-07-06T16:03:41.415Z,24.80
2018-07-06T16:06:11.731Z,24.80
2018-07-06T16:08:42.117Z,24.60
2018-07-06T16:11:12.690Z,24.60
2018-07-06T16:13:43.043Z,24.60
2018-07-06T16:16:13.818Z,24.50
2018-07-06T16:18:44.182Z,24.50
2018-07-06T16:21:14.563Z,24.50
2018-07-06T16:23:44.950Z,24.50
2018-07-06T16:26:15.306Z,24.40
2018-07-06T16:28:46.038Z,24.40
2018-07-06T16:31:16.399Z,24.40
2018-07-06T16:33:46.780Z,24.40
2018-07-06T16:36:17.219Z,24.40
2018-07-06T16:38:47.738Z,24.50
2018-07-06T16:41:18.122Z,24.60
2018-07-06T16:43:48.706Z,24.60
2018-07-06T16:46:19.058Z,24.70
2018-07-06T16:48:49.785Z,24.80
2018-07-06T16:51:20.184Z,24.80
2018-07-06T16:53:50.538Z,24.80
2018-07-06T16:56:20.940Z,24.80
2018-07-06T16:58:51.391Z,24.90
2018-07-06T17:01:21.747Z,24.90
2018-07-06T17:03:52.186Z,24.90
2018-07-06T17:06:22.594Z,25.00
2018-07-06T17:08:52.974Z,25.00
2018-07-06T17:11:23.415Z,25.00
2018-07-06T17:13:54.072Z,25.00
2018-07-06T17:16:24.583Z,25.00
2018-07-06T17:18:54.971Z,24.90
2018-07-06T17:21:25.533Z,24.80
2018-07-06T17:23:55.926Z,24.70
2018-07-06T17:26:26.323Z,24.70
2018-07-06T17:28:56.715Z,24.60
2018-07-06T17:31:27.223Z,24.60
2018-07-06T17:33:57.784Z,24.60
2018-07-06T17:36:28.218Z,24.50
2018-07-06T17:38:58.602Z,24.50
2018-07-06T17:41:28.983Z,24.50
2018-07-06T17:43:59.342Z,24.50
2018-07-06T17:46:29.722Z,24.60
2018-07-06T17:49:00.087Z,24.60
2018-07-06T17:51:30.491Z,24.60
2018-07-06T17:54:00.870Z,24.60
2018-07-06T17:56:31.270Z,24.70
2018-07-06T17:59:01.650Z,24.70
2018-07-06T18:01:32.308Z,24.80
2018-07-06T18:04:02.635Z,24.80
2018-07-06T18:06:33.474Z,24.80
2018-07-06T18:09:04.018Z,24.80
2018-07-06T18:11:34.412Z,24.80
2018-07-06T18:14:05.122Z,24.80
2018-07-06T18:16:35.607Z,24.70
2018-07-06T18:19:06.302Z,24.70
2018-07-06T18:21:36.743Z,24.60
2018-07-06T18:24:07.454Z,24.60
2018-07-06T18:26:37.848Z,24.60
2018-07-06T18:29:08.194Z,24.50
2018-07-06T18:31:38.613Z,24.50
2018-07-06T18:34:09.002Z,24.50
2018-07-06T18:36:39.350Z,24.40
2018-07-06T18:39:09.770Z,24.40
2018-07-06T18:41:40.136Z,24.40
2018-07-06T18:44:10.531Z,24.30
2018-07-06T18:46:40.911Z,24.30
2018-07-06T18:49:11.311Z,24.30
2018-07-06T18:51:42.019Z,24.20
2018-07-06T18:54:12.402Z,24.20
2018-07-06T18:56:42.762Z,24.10
2018-07-06T18:59:13.144Z,24.10
2018-07-06T19:01:43.494Z,24.10
2018-07-06T19:04:13.871Z,24.00
2018-07-06T19:06:44.595Z,23.90
2018-07-06T19:09:14.942Z,23.90
2018-07-06T19:11:45.315Z,23.80
2018-07-06T19:14:15.690Z,23.80
2018-07-06T19:16:47.350Z,23.80
2018-07-06T19:19:19.146Z,23.70
2018-07-06T19:21:49.967Z,23.60
2018-07-06T19:24:20.788Z,23.60
2018-07-06T19:26:51.870Z,23.50
2018-07-06T19:29:23.735Z,23.40
2018-07-06T19:31:55.103Z,23.30
2018-07-06T19:34:25.447Z,23.20
2018-07-06T19:36:55.845Z,23.20
2018-07-06T19:39:26.214Z,23.20
2018-07-06T19:41:56.572Z,23.10
2018-07-06T19:44:26.930Z,23.00
2018-07-06T19:46:57.400Z,22.90
2018-07-06T19:49:27.812Z,22.80
2018-07-06T19:51:58.194Z,22.70
2018-07-06T19:54:28.882Z,22.70
2018-07-06T19:56:59.608Z,22.60
2018-07-06T19:59:29.958Z,22.50
2018-07-06T20:02:00.359Z,22.40
2018-07-06T20:04:30.754Z,22.30
2018-07-06T20:07:01.179Z,22.20
2018-07-06T20:09:31.881Z,22.20
2018-07-06T20:12:02.195Z,22.10
2018-07-06T20:14:32.574Z,22.00
2018-07-06T20:17:03.065Z,22.00
2018-07-06T20:19:33.754Z,21.90
2018-07-06T20:22:04.486Z,21.90
2018-07-06T20:24:36.775Z,21.90
2018-07-06T20:27:07.238Z,21.80
2018-07-06T20:29:37.655Z,21.80
2018-07-06T20:32:08.449Z,21.80
2018-07-06T20:34:38.936Z,21.70
2018-07-06T20:37:09.392Z,21.70
2018-07-06T20:39:39.841Z,21.70
2018-07-06T20:42:10.251Z,21.60
2018-07-06T20:44:40.648Z,21.60
2018-07-06T20:47:11.082Z,21.60
2018-07-06T20:49:41.480Z,21.50
2018-07-06T20:52:11.885Z,21.50
2018-07-06T20:54:42.300Z,21.50
2018-07-06T20:57:12.722Z,21.40
2018-07-06T20:59:43.359Z,21.40
2018-07-06T21:02:13.772Z,21.40
2018-07-06T21:04:44.289Z,21.30
2018-07-06T21:07:14.852Z,21.30
2018-07-06T21:09:45.357Z,21.20
2018-07-06T21:12:16.172Z,21.20
2018-07-06T21:14:46.599Z,21.20
2018-07-06T21:17:17.043Z,21.20
2018-07-06T21:19:47.451Z,21.10
2018-07-06T21:22:17.865Z,21.10
2018-07-06T21:24:48.471Z,21.10
2018-07-06T21:27:18.875Z,21.00
2018-07-06T21:29:49.908Z,21.00
2018-07-06T21:32:20.552Z,21.00
2018-07-06T21:34:50.953Z,20.90
2018-07-06T21:37:21.340Z,20.90
2018-07-06T21:39:51.799Z,20.80
2018-07-06T21:42:22.172Z,20.80
2018-07-06T21:44:52.727Z,20.70
2018-07-06T21:47:23.127Z,20.70
2018-07-06T21:49:53.539Z,20.60
2018-07-06T21:52:24.114Z,20.60
2018-07-06T21:54:54.879Z,20.60
2018-07-06T21:57:25.359Z,20.50
2018-07-06T21:59:55.753Z,20.40
2018-07-06T22:02:26.451Z,20.40
2018-07-06T22:04:57.169Z,20.30
2018-07-06T22:07:27.947Z,20.30
2018-07-06T22:09:58.348Z,20.20
2018-07-06T22:12:28.855Z,20.10
2018-07-06T22:15:00.514Z,20.10
2018-07-06T22:17:32.557Z,20.00
2018-07-06T22:20:02.997Z,20.00
2018-07-06T22:22:33.693Z,20.00
2018-07-06T22:25:04.605Z,19.90
2018-07-06T22:27:35.308Z,19.90
2018-07-06T22:30:06.064Z,19.80
2018-07-06T22:32:37.075Z,19.80
2018-07-06T22:35:07.944Z,19.80
2018-07-06T22:37:38.639Z,19.80
2018-07-06T22:40:09.405Z,19.70
2018-07-06T22:42:40.147Z,19.70
2018-07-06T22:45:11.629Z,19.70
2018-07-06T22:47:42.697Z,19.60
2018-07-06T22:50:13.747Z,19.60
2018-07-06T22:52:44.415Z,19.60
2018-07-06T22:55:15.475Z,19.50
2018-07-06T22:57:46.147Z,19.50
2018-07-06T23:00:16.883Z,19.40
2018-07-06T23:05:18.838Z,19.30
2018-07-06T23:07:49.687Z,19.30
2018-07-06T23:10:20.807Z,19.30
2018-07-06T23:12:51.825Z,19.20
2018-07-06T23:15:22.564Z,19.20
2018-07-06T23:17:53.236Z,19.20
2018-07-06T23:20:23.954Z,19.20
2018-07-06T23:23:01.346Z,19.10
2018-07-06T23:25:33.952Z,19.10
2018-07-06T23:28:04.996Z,19.10
2018-07-06T23:30:35.776Z,19.10
2018-07-06T23:33:07.263Z,19.10
2018-07-06T23:35:38.361Z,19.00
2018-07-06T23:38:09.934Z,19.00
2018-07-06T23:40:41.083Z,19.00
2018-07-06T23:43:12.096Z,18.90
2018-07-06T23:45:43.110Z,18.90
2018-07-06T23:48:14.134Z,18.90
2018-07-06T23:50:44.818Z,18.80
2018-07-06T23:53:15.799Z,18.80
2018-07-06T23:55:46.815Z,18.80
2018-07-06T23:58:17.475Z,18.70
